Bad River Indian Reservation, Wisconsin
Current Conditions -  °F | °C
As of 4:32 PM on Sunday 23 Nov 2014 (Local Time) from KASX Reporting Station
Moderate Fog Moderate Fog  
Wind Chill: 37°   Ceiling: 300
Heat Index: 41°   Visibility: 0.25mi
Dew Point: 41°   Wind: 6mph
Humidity: 100%   Direction: 350°N
Pressure: 29.38"   Gusts: NA
Location:  46.543°N, 90.8706°W
Report Text: KASX 232232Z AUTO 35005KT 1/4SM FG BKN003 OVC009 05/05 A2938 RMK AO2 T00500050
Loading
Personal Weather Stations






























Interactive Weather Map New forecast layout! Learn more

10-Day Weather Forecast

Advertisements
Track Severe Weather on mobile